Time,TemperatureF,DewpointF,PressureIn,WindDirection,WindDirectionDegrees,WindSpeedMPH,WindSpeedGustMPH,Humidity,HourlyPrecipIn,Conditions,Clouds,dailyrainin,SoftwareType,DateUTC
2013-03-12 00:00:00,48.8,17.9,30.02,NW,306,8.0,8.0,29,0.00,,,0.00,Wunderground v.1.15,2013-03-12 06:00:00,
2013-03-12 00:10:00,48.8,17.9,30.02,NW,309,8.0,8.0,29,0.00,,,0.00,Wunderground v.1.15,2013-03-12 06:10:00,
2013-03-12 00:20:00,48.9,18.0,30.01,NNW,333,8.0,10.0,29,0.00,,,0.00,Wunderground v.1.15,2013-03-12 06:20:00,
2013-03-12 00:30:00,48.9,17.2,30.01,NW,311,8.0,9.0,28,0.00,,,0.00,Wunderground v.1.15,2013-03-12 06:30:00,
2013-03-12 00:40:00,48.9,17.2,30.01,NNW,336,5.0,5.0,28,0.00,,,0.00,Wunderground v.1.15,2013-03-12 06:40:00,
2013-03-12 00:50:00,48.8,17.1,30.01,NW,308,4.0,4.0,28,0.00,,,0.00,Wunderground v.1.15,2013-03-12 06:50:00,
2013-03-12 01:00:00,48.3,17.5,30.01,NNE,20,2.0,5.0,29,0.00,,,0.00,Wunderground v.1.15,2013-03-12 07:00:00,
2013-03-12 01:10:00,47.3,17.4,30.01,East,89,2.0,2.0,30,0.00,,,0.00,Wunderground v.1.15,2013-03-12 07:10:00,
2013-03-12 01:20:00,45.8,17.6,30.02,ENE,73,1.0,1.0,32,0.00,,,0.00,Wunderground v.1.15,2013-03-12 07:20:00,
2013-03-12 01:30:00,46.2,17.9,30.02,ENE,69,5.0,5.0,32,0.00,,,0.00,Wunderground v.1.15,2013-03-12 07:30:00,
2013-03-12 01:40:00,46.2,17.9,30.02,East,81,5.0,5.0,32,0.00,,,0.00,Wunderground v.1.15,2013-03-12 07:40:00,
2013-03-12 01:50:00,47.1,18.0,30.03,ENE,67,3.0,3.0,31,0.00,,,0.00,Wunderground v.1.15,2013-03-12 07:50:00,
2013-03-12 02:00:00,47.3,18.1,30.03,ENE,68,1.0,4.0,31,0.00,,,0.00,Wunderground v.1.15,2013-03-12 08:00:00,
2013-03-12 02:10:00,47.1,18.0,30.03,SSW,194,1.0,1.0,31,0.00,,,0.00,Wunderground v.1.15,2013-03-12 08:10:00,
2013-03-12 02:20:00,47.0,18.6,30.03,North,5,3.0,4.0,32,0.00,,,0.00,Wunderground v.1.15,2013-03-12 08:20:00,
2013-03-12 02:30:00,48.0,18.8,30.02,North,5,3.0,3.0,31,0.00,,,0.00,Wunderground v.1.15,2013-03-12 08:30:00,
2013-03-12 02:40:00,47.6,18.4,30.02,NE,35,1.0,1.0,31,0.00,,,0.00,Wunderground v.1.15,2013-03-12 08:40:00,
2013-03-12 02:50:00,46.2,18.6,30.02,ENE,78,0.0,0.0,33,0.00,,,0.00,Wunderground v.1.15,2013-03-12 08:50:00,
2013-03-12 03:00:00,45.1,18.4,30.02,ESE,123,1.0,1.0,34,0.00,,,0.00,Wunderground v.1.15,2013-03-12 09:00:00,
2013-03-12 03:10:00,43.8,18.5,30.02,ESE,123,0.0,0.0,36,0.00,,,0.00,Wunderground v.1.15,2013-03-12 09:10:00,
2013-03-12 03:20:00,42.9,19.0,30.02,ESE,123,0.0,0.0,38,0.00,,,0.00,Wunderground v.1.15,2013-03-12 09:20:00,
2013-03-12 03:30:00,42.2,19.0,30.02,SE,125,1.0,1.0,39,0.00,,,0.00,Wunderground v.1.15,2013-03-12 09:30:00,
2013-03-12 03:40:00,42.6,19.3,30.02,SE,131,1.0,1.0,39,0.00,,,0.00,Wunderground v.1.15,2013-03-12 09:40:00,
2013-03-12 03:50:00,44.1,19.5,30.02,SSW,195,1.0,2.0,37,0.00,,,0.00,Wunderground v.1.15,2013-03-12 09:50:00,
2013-03-12 04:00:00,42.6,19.3,30.02,South,184,0.0,0.0,39,0.00,,,0.00,Wunderground v.1.15,2013-03-12 10:00:00,
2013-03-12 04:10:00,40.5,19.2,30.02,NW,311,0.0,4.0,42,0.00,,,0.00,Wunderground v.1.15,2013-03-12 10:10:00,
2013-03-12 04:20:00,40.5,19.7,30.03,WNW,291,2.0,2.0,43,0.00,,,0.00,Wunderground v.1.15,2013-03-12 10:20:00,
2013-03-12 04:30:00,41.8,19.8,30.03,NE,48,2.0,2.0,41,0.00,,,0.00,Wunderground v.1.15,2013-03-12 10:30:00,
2013-03-12 04:40:00,40.6,18.7,30.03,NE,47,0.0,1.0,41,0.00,,,0.00,Wunderground v.1.15,2013-03-12 10:40:00,
2013-03-12 04:50:00,38.9,18.8,30.04,NE,47,0.0,0.0,44,0.00,,,0.00,Wunderground v.1.15,2013-03-12 10:50:00,
2013-03-12 05:00:00,38.0,19.0,30.05,ENE,63,1.0,1.0,46,0.00,,,0.00,Wunderground v.1.15,2013-03-12 11:00:00,
2013-03-12 05:10:00,37.8,18.8,30.05,ENE,63,0.0,0.0,46,0.00,,,0.00,Wunderground v.1.15,2013-03-12 11:10:00,
2013-03-12 05:20:00,37.3,18.9,30.05,ENE,63,0.0,0.0,47,0.00,,,0.00,Wunderground v.1.15,2013-03-12 11:20:00,
2013-03-12 05:30:00,36.8,18.9,30.06,ENE,63,0.0,0.0,48,0.00,,,0.00,Wunderground v.1.15,2013-03-12 11:30:00,
2013-03-12 05:40:00,36.0,18.7,30.06,ENE,63,0.0,0.0,49,0.00,,,0.00,Wunderground v.1.15,2013-03-12 11:40:00,
2013-03-12 05:50:00,35.5,18.7,30.07,ENE,63,0.0,0.0,50,0.00,,,0.00,Wunderground v.1.15,2013-03-12 11:50:00,
2013-03-12 06:00:00,35.3,18.0,30.07,NE,52,0.0,1.0,49,0.00,,,0.00,Wunderground v.1.15,2013-03-12 12:00:00,
2013-03-12 06:10:00,37.2,18.3,30.07,North,360,1.0,1.0,46,0.00,,,0.00,Wunderground v.1.15,2013-03-12 12:10:00,
2013-03-12 06:20:00,37.6,18.2,30.08,WNW,302,1.0,1.0,45,0.00,,,0.00,Wunderground v.1.15,2013-03-12 12:20:00,
2013-03-12 06:30:00,37.2,17.8,30.08,WNW,302,0.0,0.0,45,0.00,,,0.00,Wunderground v.1.15,2013-03-12 12:30:00,
2013-03-12 06:40:00,36.2,17.9,30.08,WNW,292,0.0,0.0,47,0.00,,,0.00,Wunderground v.1.15,2013-03-12 12:40:00,
2013-03-12 06:50:00,37.3,17.9,30.09,West,269,2.0,2.0,45,0.00,,,0.00,Wunderground v.1.15,2013-03-12 12:50:00,
2013-03-12 07:00:00,36.6,18.2,30.09,West,269,1.0,2.0,47,0.00,,,0.00,Wunderground v.1.15,2013-03-12 13:00:00,
2013-03-12 07:10:00,36.5,18.2,30.09,West,269,2.0,2.0,47,0.00,,,0.00,Wunderground v.1.15,2013-03-12 13:10:00,
2013-03-12 07:20:00,36.0,17.7,30.10,West,269,0.0,0.0,47,0.00,,,0.00,Wunderground v.1.15,2013-03-12 13:20:00,
2013-03-12 07:30:00,35.0,17.3,30.10,West,269,0.0,0.0,48,0.00,,,0.00,Wunderground v.1.15,2013-03-12 13:30:00,
2013-03-12 07:40:00,34.3,17.6,30.10,West,269,0.0,0.0,50,0.00,,,0.00,Wunderground v.1.15,2013-03-12 13:40:00,
2013-03-12 07:50:00,33.4,17.6,30.11,West,269,0.0,0.0,52,0.00,,,0.00,Wunderground v.1.15,2013-03-12 13:50:00,
2013-03-12 08:00:00,34.0,18.6,30.11,West,269,0.0,0.0,53,0.00,,,0.00,Wunderground v.1.15,2013-03-12 14:00:00,
2013-03-12 08:10:00,36.6,20.2,30.11,West,269,0.0,1.0,51,0.00,,,0.00,Wunderground v.1.15,2013-03-12 14:10:00,
2013-03-12 08:20:00,38.5,20.5,30.11,West,269,0.0,1.0,48,0.00,,,0.00,Wunderground v.1.15,2013-03-12 14:20:00,
2013-03-12 08:30:00,39.8,20.2,30.13,West,269,1.0,1.0,45,0.00,,,0.00,Wunderground v.1.15,2013-03-12 14:30:00,
2013-03-12 08:40:00,40.9,20.6,30.13,West,269,1.0,2.0,44,0.00,,,0.00,Wunderground v.1.15,2013-03-12 14:40:00,
2013-03-12 08:50:00,42.8,20.7,30.13,WSW,246,1.0,4.0,41,0.00,,,0.00,Wunderground v.1.15,2013-03-12 14:50:00,
2013-03-12 09:00:00,44.2,20.2,30.14,WSW,257,2.0,2.0,38,0.00,,,0.00,Wunderground v.1.15,2013-03-12 15:00:00,
2013-03-12 09:10:00,46.0,20.5,30.14,SW,234,1.0,3.0,36,0.00,,,0.00,Wunderground v.1.15,2013-03-12 15:10:00,
2013-03-12 09:20:00,47.3,21.0,30.13,SW,234,1.0,2.0,35,0.00,,,0.00,Wunderground v.1.15,2013-03-12 15:20:00,
2013-03-12 09:30:00,48.8,20.2,30.14,NW,321,1.0,1.0,32,0.00,,,0.00,Wunderground v.1.15,2013-03-12 15:30:00,
2013-03-12 09:40:00,49.5,20.1,30.14,NW,321,1.0,1.0,31,0.00,,,0.00,Wunderground v.1.15,2013-03-12 15:40:00,
2013-03-12 09:50:00,51.1,20.7,30.14,North,10,1.0,4.0,30,0.00,,,0.00,Wunderground v.1.15,2013-03-12 15:50:00,
2013-03-12 10:00:00,51.9,21.4,30.13,NNE,15,2.0,3.0,30,0.00,,,0.00,Wunderground v.1.15,2013-03-12 16:00:00,
2013-03-12 10:10:00,52.5,20.3,30.13,SSW,210,2.0,4.0,28,0.00,,,0.00,Wunderground v.1.15,2013-03-12 16:10:00,
2013-03-12 10:20:00,53.1,20.0,30.12,ESE,113,2.0,2.0,27,0.00,,,0.00,Wunderground v.1.15,2013-03-12 16:20:00,
2013-03-12 10:30:00,53.9,20.6,30.12,SSW,206,1.0,4.0,27,0.00,,,0.00,Wunderground v.1.15,2013-03-12 16:30:00,
2013-03-12 10:40:00,54.1,21.7,30.12,NNE,23,2.0,2.0,28,0.00,,,0.00,Wunderground v.1.15,2013-03-12 16:40:00,
2013-03-12 10:50:00,55.7,21.3,30.12,NNW,333,1.0,3.0,26,0.00,,,0.00,Wunderground v.1.15,2013-03-12 16:50:00,
2013-03-12 11:00:00,55.9,21.5,30.13,NNW,329,4.0,4.0,26,0.00,,,0.00,Wunderground v.1.15,2013-03-12 17:00:00,
2013-03-12 11:10:00,55.9,21.5,30.13,West,259,4.0,8.0,26,0.00,,,0.00,Wunderground v.1.15,2013-03-12 17:10:00,
2013-03-12 11:20:00,56.7,21.2,30.13,WNW,298,2.0,2.0,25,0.00,,,0.00,Wunderground v.1.15,2013-03-12 17:20:00,
2013-03-12 11:30:00,57.0,21.5,30.13,West,271,4.0,5.0,25,0.00,,,0.00,Wunderground v.1.15,2013-03-12 17:30:00,
2013-03-12 11:40:00,57.0,21.5,30.13,North,360,4.0,4.0,25,0.00,,,0.00,Wunderground v.1.15,2013-03-12 17:40:00,
2013-03-12 11:50:00,57.6,21.0,30.12,NW,323,3.0,3.0,24,0.00,,,0.00,Wunderground v.1.15,2013-03-12 17:50:00,
2013-03-12 12:00:00,58.0,21.4,30.11,West,260,3.0,7.0,24,0.00,,,0.00,Wunderground v.1.15,2013-03-12 18:00:00,
2013-03-12 12:10:00,59.3,21.5,30.11,North,360,4.0,4.0,23,0.00,,,0.00,Wunderground v.1.15,2013-03-12 18:10:00,
2013-03-12 12:20:00,60.1,20.0,30.11,North,5,5.0,5.0,21,0.00,,,0.00,Wunderground v.1.15,2013-03-12 18:20:00,
2013-03-12 12:30:00,60.5,19.2,30.10,NW,305,5.0,5.0,20,0.00,,,0.00,Wunderground v.1.15,2013-03-12 18:30:00,
2013-03-12 12:40:00,60.4,19.1,30.10,WNW,298,4.0,4.0,20,0.00,,,0.00,Wunderground v.1.15,2013-03-12 18:40:00,
2013-03-12 12:50:00,61.2,18.6,30.10,NW,306,5.0,5.0,19,0.00,,,0.00,Wunderground v.1.15,2013-03-12 18:50:00,
2013-03-12 13:00:00,61.6,17.6,30.09,North,355,6.0,6.0,18,0.00,,,0.00,Wunderground v.1.15,2013-03-12 19:00:00,
2013-03-12 13:10:00,62.0,18.0,30.09,WNW,302,7.0,9.0,18,0.00,,,0.00,Wunderground v.1.15,2013-03-12 19:10:00,
2013-03-12 13:20:00,62.4,19.5,30.09,NNE,22,4.0,5.0,19,0.00,,,0.00,Wunderground v.1.15,2013-03-12 19:20:00,
2013-03-12 13:30:00,62.9,20.0,30.08,WNW,296,4.0,5.0,19,0.00,,,0.00,Wunderground v.1.15,2013-03-12 19:30:00,
2013-03-12 13:40:00,63.1,20.1,30.08,SSW,198,3.0,3.0,19,0.00,,,0.00,Wunderground v.1.15,2013-03-12 19:40:00,
2013-03-12 13:50:00,63.5,20.5,30.07,NNE,28,1.0,1.0,19,0.00,,,0.00,Wunderground v.1.15,2013-03-12 19:50:00,
2013-03-12 14:00:00,64.0,19.6,30.06,West,275,3.0,4.0,18,0.00,,,0.00,Wunderground v.1.15,2013-03-12 20:00:00,
2013-03-12 14:10:00,64.3,19.8,30.06,NE,47,3.0,3.0,18,0.00,,,0.00,Wunderground v.1.15,2013-03-12 20:10:00,
2013-03-12 14:20:00,65.2,19.2,30.05,NW,325,3.0,3.0,17,0.00,,,0.00,Wunderground v.1.15,2013-03-12 20:20:00,
2013-03-12 14:30:00,65.6,18.1,30.04,NW,304,3.0,8.0,16,0.00,,,0.00,Wunderground v.1.15,2013-03-12 20:30:00,
2013-03-12 14:40:00,65.8,18.3,30.04,NW,315,4.0,4.0,16,0.00,,,0.00,Wunderground v.1.15,2013-03-12 20:40:00,
2013-03-12 14:50:00,66.1,18.5,30.03,North,360,5.0,5.0,16,0.00,,,0.00,Wunderground v.1.15,2013-03-12 20:50:00,
2013-03-12 15:00:00,66.9,17.7,30.02,NNW,339,4.0,4.0,15,0.00,,,0.00,Wunderground v.1.15,2013-03-12 21:00:00,
2013-03-12 15:10:00,66.6,17.4,30.02,NW,305,5.0,5.0,15,0.00,,,0.00,Wunderground v.1.15,2013-03-12 21:10:00,
2013-03-12 15:20:00,66.9,17.7,30.01,NW,309,4.0,5.0,15,0.00,,,0.00,Wunderground v.1.15,2013-03-12 21:20:00,
2013-03-12 15:30:00,67.8,16.8,30.00,North,5,5.0,5.0,14,0.00,,,0.00,Wunderground v.1.15,2013-03-12 21:30:00,
2013-03-12 15:40:00,67.8,16.8,30.00,West,267,4.0,9.0,14,0.00,,,0.00,Wunderground v.1.15,2013-03-12 21:40:00,
2013-03-12 15:50:00,67.3,16.4,30.00,NW,317,6.0,6.0,14,0.00,,,0.00,Wunderground v.1.15,2013-03-12 21:50:00,
2013-03-12 16:00:00,67.9,16.9,30.00,WNW,284,4.0,5.0,14,0.00,,,0.00,Wunderground v.1.15,2013-03-12 22:00:00,
2013-03-12 16:10:00,68.1,17.0,30.00,WNW,288,4.0,4.0,14,0.00,,,0.00,Wunderground v.1.15,2013-03-12 22:10:00,
2013-03-12 16:20:00,68.3,17.2,30.00,NW,320,4.0,4.0,14,0.00,,,0.00,Wunderground v.1.15,2013-03-12 22:20:00,
2013-03-12 16:30:00,68.3,17.2,30.00,WNW,301,5.0,5.0,14,0.00,,,0.00,Wunderground v.1.15,2013-03-12 22:30:00,
2013-03-12 16:40:00,68.1,17.0,30.00,West,281,3.0,5.0,14,0.00,,,0.00,Wunderground v.1.15,2013-03-12 22:40:00,
2013-03-12 16:50:00,68.6,17.4,30.00,NW,323,4.0,4.0,14,0.00,,,0.00,Wunderground v.1.15,2013-03-12 22:50:00,
2013-03-12 17:00:00,68.4,17.3,30.00,NNW,336,3.0,3.0,14,0.00,,,0.00,Wunderground v.1.15,2013-03-12 23:00:00,
2013-03-12 17:10:00,67.1,16.3,30.00,North,355,2.0,2.0,14,0.00,,,0.00,Wunderground v.1.15,2013-03-12 23:10:00,
2013-03-12 17:20:00,67.8,16.8,30.00,NNW,333,3.0,4.0,14,0.00,,,0.00,Wunderground v.1.15,2013-03-12 23:20:00,
2013-03-12 17:30:00,68.1,17.0,30.00,WNW,292,4.0,4.0,14,0.00,,,0.00,Wunderground v.1.15,2013-03-12 23:30:00,
2013-03-12 17:40:00,68.1,17.0,30.00,WNW,282,3.0,3.0,14,0.00,,,0.00,Wunderground v.1.15,2013-03-12 23:40:00,
2013-03-12 17:50:00,67.8,16.8,30.00,North,360,3.0,4.0,14,0.00,,,0.00,Wunderground v.1.15,2013-03-12 23:50:00,
2013-03-12 18:00:00,67.4,16.5,30.00,NW,311,4.0,4.0,14,0.00,,,0.00,Wunderground v.1.15,2013-03-13 00:00:00,
2013-03-12 18:10:00,67.3,16.4,30.00,North,9,3.0,5.0,14,0.00,,,0.00,Wunderground v.1.15,2013-03-13 00:10:00,
2013-03-12 18:20:00,66.4,17.3,30.00,NW,318,3.0,5.0,15,0.00,,,0.00,Wunderground v.1.15,2013-03-13 00:20:00,
2013-03-12 18:30:00,65.8,16.8,30.01,WNW,303,3.0,3.0,15,0.00,,,0.00,Wunderground v.1.15,2013-03-13 00:30:00,
2013-03-12 18:40:00,65.6,16.6,30.01,NNW,346,3.0,3.0,15,0.00,,,0.00,Wunderground v.1.15,2013-03-13 00:40:00,
2013-03-12 18:50:00,65.2,16.3,30.01,NW,321,3.0,3.0,15,0.00,,,0.00,Wunderground v.1.15,2013-03-13 00:50:00,
2013-03-12 19:00:00,64.3,17.1,30.02,NNW,338,3.0,5.0,16,0.00,,,0.00,Wunderground v.1.15,2013-03-13 01:00:00,
2013-03-12 19:10:00,63.2,16.2,30.02,NW,326,2.0,2.0,16,0.00,,,0.00,Wunderground v.1.15,2013-03-13 01:10:00,
2013-03-12 19:20:00,62.3,16.9,30.03,NNW,332,2.0,5.0,17,0.00,,,0.00,Wunderground v.1.15,2013-03-13 01:20:00,
2013-03-12 19:30:00,61.6,16.3,30.04,NW,319,2.0,2.0,17,0.00,,,0.00,Wunderground v.1.15,2013-03-13 01:30:00,
2013-03-12 19:40:00,60.9,17.0,30.04,NW,326,2.0,2.0,18,0.00,,,0.00,Wunderground v.1.15,2013-03-13 01:40:00,
2013-03-12 19:50:00,60.2,16.5,30.04,NW,313,2.0,2.0,18,0.00,,,0.00,Wunderground v.1.15,2013-03-13 01:50:00,
2013-03-12 20:00:00,59.6,17.2,30.05,NW,321,2.0,2.0,19,0.00,,,0.00,Wunderground v.1.15,2013-03-13 02:00:00,
2013-03-12 20:10:00,58.9,16.7,30.05,NNW,335,1.0,1.0,19,0.00,,,0.00,Wunderground v.1.15,2013-03-13 02:10:00,
2013-03-12 20:20:00,58.1,17.2,30.05,NW,319,0.0,0.0,20,0.00,,,0.00,Wunderground v.1.15,2013-03-13 02:20:00,
2013-03-12 20:30:00,57.3,17.6,30.06,NW,324,0.0,0.0,21,0.00,,,0.00,Wunderground v.1.15,2013-03-13 02:30:00,
2013-03-12 20:40:00,56.5,18.1,30.06,NW,324,0.0,0.0,22,0.00,,,0.00,Wunderground v.1.15,2013-03-13 02:40:00,
2013-03-12 20:50:00,55.3,17.0,30.06,NW,325,0.0,2.0,22,0.00,,,0.00,Wunderground v.1.15,2013-03-13 02:50:00,
2013-03-12 21:00:00,55.1,17.9,30.07,NW,325,0.0,0.0,23,0.00,,,0.00,Wunderground v.1.15,2013-03-13 03:00:00,
2013-03-12 21:10:00,54.2,18.1,30.07,NW,321,0.0,2.0,24,0.00,,,0.00,Wunderground v.1.15,2013-03-13 03:10:00,
2013-03-12 21:20:00,52.6,17.7,30.08,South,185,1.0,3.0,25,0.00,,,0.00,Wunderground v.1.15,2013-03-13 03:20:00,
2013-03-12 21:30:00,53.8,17.8,30.09,WNW,284,2.0,2.0,24,0.00,,,0.00,Wunderground v.1.15,2013-03-13 03:30:00,
2013-03-12 21:40:00,55.4,18.2,30.09,WNW,283,1.0,1.0,23,0.00,,,0.00,Wunderground v.1.15,2013-03-13 03:40:00,
2013-03-12 21:50:00,56.3,17.9,30.09,West,259,1.0,1.0,22,0.00,,,0.00,Wunderground v.1.15,2013-03-13 03:50:00,
2013-03-12 22:00:00,55.1,17.9,30.10,West,259,0.0,1.0,23,0.00,,,0.00,Wunderground v.1.15,2013-03-13 04:00:00,
2013-03-12 22:10:00,53.2,18.2,30.10,West,259,0.0,0.0,25,0.00,,,0.00,Wunderground v.1.15,2013-03-13 04:10:00,
2013-03-12 22:20:00,52.2,18.3,30.10,West,259,0.0,0.0,26,0.00,,,0.00,Wunderground v.1.15,2013-03-13 04:20:00,
2013-03-12 22:30:00,50.4,18.5,30.10,West,259,0.0,0.0,28,0.00,,,0.00,Wunderground v.1.15,2013-03-13 04:30:00,
2013-03-12 22:40:00,50.1,17.4,30.10,West,259,0.0,1.0,27,0.00,,,0.00,Wunderground v.1.15,2013-03-13 04:40:00,
2013-03-12 22:50:00,50.1,17.4,30.11,West,259,0.0,0.0,27,0.00,,,0.00,Wunderground v.1.15,2013-03-13 04:50:00,
2013-03-12 23:00:00,50.5,17.7,30.12,WNW,296,1.0,3.0,27,0.00,,,0.00,Wunderground v.1.15,2013-03-13 05:00:00,
2013-03-12 23:10:00,51.1,18.2,30.12,WNW,298,2.0,2.0,27,0.00,,,0.00,Wunderground v.1.15,2013-03-13 05:10:00,
2013-03-12 23:20:00,50.1,17.4,30.12,WNW,298,0.0,0.0,27,0.00,,,0.00,Wunderground v.1.15,2013-03-13 05:20:00,
2013-03-12 23:30:00,49.2,16.6,30.12,WNW,297,0.0,0.0,27,0.00,,,0.00,Wunderground v.1.15,2013-03-13 05:30:00,
2013-03-12 23:40:00,47.4,16.7,30.12,WNW,298,0.0,0.0,29,0.00,,,0.00,Wunderground v.1.15,2013-03-13 05:40:00,
2013-03-12 23:50:00,46.5,18.2,30.12,WNW,296,1.0,1.0,32,0.00,,,0.00,Wunderground v.1.15,2013-03-13 05:50:00,